sensor_id;sensor_type;location;lat;lon;timestamp;pressure;altitude;pressure_sealevel;temperature;humidity
73105;BME280;61296;50.526;30.792;2023-04-08T00:01:11;99874.25;;;7.72;100.00
73105;BME280;61296;50.526;30.792;2023-04-08T00:16:31;99837.88;;;7.60;100.00
73105;BME280;61296;50.526;30.792;2023-04-08T00:31:50;99835.63;;;7.62;100.00
73105;BME280;61296;50.526;30.792;2023-04-08T00:47:14;99861.03;;;7.90;100.00
73105;BME280;61296;50.526;30.792;2023-04-08T01:02:41;99890.78;;;8.04;100.00
73105;BME280;61296;50.526;30.792;2023-04-08T01:18:10;99813.41;;;7.51;100.00
73105;BME280;61296;50.526;30.792;2023-04-08T01:33:30;99792.25;;;7.36;100.00
73105;BME280;61296;50.526;30.792;2023-04-08T01:48:51;99810.81;;;7.42;100.00
73105;BME280;61296;50.526;30.792;2023-04-08T02:04:11;99750.63;;;7.14;100.00
73105;BME280;61296;50.526;30.792;2023-04-08T02:19:39;99784.63;;;7.29;100.00
73105;BME280;61296;50.526;30.792;2023-04-08T02:35:03;99923.22;;;8.18;100.00
73105;BME280;61296;50.526;30.792;2023-04-08T02:50:23;99835.91;;;7.44;100.00
73105;BME280;61296;50.526;30.792;2023-04-08T03:05:44;99938.00;;;8.01;100.00
73105;BME280;61296;50.526;30.792;2023-04-08T03:21:03;99855.59;;;7.50;100.00
73105;BME280;61296;50.526;30.792;2023-04-08T03:36:23;99852.28;;;7.57;100.00
73105;BME280;61296;50.526;30.792;2023-04-08T03:51:42;99842.06;;;7.41;100.00
73105;BME280;61296;50.526;30.792;2023-04-08T04:07:02;99945.56;;;7.92;100.00
73105;BME280;61296;50.526;30.792;2023-04-08T04:22:23;99860.56;;;7.32;100.00
73105;BME280;61296;50.526;30.792;2023-04-08T04:37:42;99826.50;;;7.30;100.00
73105;BME280;61296;50.526;30.792;2023-04-08T04:53:01;99905.94;;;8.01;100.00
73105;BME280;61296;50.526;30.792;2023-04-08T05:08:21;99917.69;;;8.30;100.00
73105;BME280;61296;50.526;30.792;2023-04-08T05:23:40;99966.78;;;8.79;100.00
73105;BME280;61296;50.526;30.792;2023-04-08T05:38:59;100008.81;;;9.46;97.78
73105;BME280;61296;50.526;30.792;2023-04-08T05:54:18;99870.59;;;9.03;93.85
73105;BME280;61296;50.526;30.792;2023-04-08T06:09:38;99843.63;;;9.24;91.41
73105;BME280;61296;50.526;30.792;2023-04-08T06:24:57;99904.69;;;9.92;88.17
73105;BME280;61296;50.526;30.792;2023-04-08T06:40:17;99931.78;;;10.51;85.25
73105;BME280;61296;50.526;30.792;2023-04-08T06:55:36;99929.69;;;10.45;84.49
73105;BME280;61296;50.526;30.792;2023-04-08T07:10:56;100020.63;;;11.43;82.94
73105;BME280;61296;50.526;30.792;2023-04-08T07:26:19;100057.78;;;11.53;83.37
73105;BME280;61296;50.526;30.792;2023-04-08T07:41:47;100009.56;;;11.40;80.53
73105;BME280;61296;50.526;30.792;2023-04-08T07:57:06;100001.91;;;11.79;77.93
73105;BME280;61296;50.526;30.792;2023-04-08T08:12:26;99928.00;;;11.58;78.98
73105;BME280;61296;50.526;30.792;2023-04-08T08:27:45;99897.91;;;12.02;72.68
73105;BME280;61296;50.526;30.792;2023-04-08T08:43:05;100004.78;;;12.83;73.28
73105;BME280;61296;50.526;30.792;2023-04-08T08:58:26;99985.59;;;13.01;70.16
73105;BME280;61296;50.526;30.792;2023-04-08T09:13:46;99929.31;;;12.68;68.95
73105;BME280;61296;50.526;30.792;2023-04-08T09:29:07;100056.22;;;13.87;70.20
73105;BME280;61296;50.526;30.792;2023-04-08T09:44:28;99954.81;;;13.43;67.11
73105;BME280;61296;50.526;30.792;2023-04-08T09:59:51;99918.94;;;13.50;65.94
73105;BME280;61296;50.526;30.792;2023-04-08T10:15:38;100071.19;;;14.48;61.48
73105;BME280;61296;50.526;30.792;2023-04-08T10:31:20;99939.88;;;13.51;58.67
73105;BME280;61296;50.526;30.792;2023-04-08T10:46:40;100012.50;;;14.14;62.68
73105;BME280;61296;50.526;30.792;2023-04-08T11:01:59;99998.88;;;14.60;62.59
73105;BME280;61296;50.526;30.792;2023-04-08T11:17:19;99943.53;;;14.78;59.11
73105;BME280;61296;50.526;30.792;2023-04-08T11:32:44;99885.75;;;14.48;50.33
73105;BME280;61296;50.526;30.792;2023-04-08T11:48:09;99916.66;;;15.43;51.77
73105;BME280;61296;50.526;30.792;2023-04-08T12:03:28;99863.16;;;15.56;49.93
73105;BME280;61296;50.526;30.792;2023-04-08T12:18:50;99965.53;;;16.28;47.69
73105;BME280;61296;50.526;30.792;2023-04-08T12:34:09;99894.78;;;14.24;49.76
73105;BME280;61296;50.526;30.792;2023-04-08T12:49:29;99895.09;;;13.97;53.47
73105;BME280;61296;50.526;30.792;2023-04-08T13:04:50;99968.78;;;14.44;52.41
73105;BME280;61296;50.526;30.792;2023-04-08T13:20:11;99957.47;;;12.85;59.39
73105;BME280;61296;50.526;30.792;2023-04-08T13:35:31;99984.88;;;12.30;64.67
73105;BME280;61296;50.526;30.792;2023-04-08T13:50:50;99933.38;;;11.47;70.63
73105;BME280;61296;50.526;30.792;2023-04-08T14:06:10;99937.81;;;11.82;70.59
73105;BME280;61296;50.526;30.792;2023-04-08T14:21:30;99820.88;;;11.49;66.35
73105;BME280;61296;50.526;30.792;2023-04-08T14:36:50;99911.19;;;12.67;62.01
73105;BME280;61296;50.526;30.792;2023-04-08T14:52:09;99861.97;;;12.77;55.79
73105;BME280;61296;50.526;30.792;2023-04-08T15:07:29;99885.72;;;12.88;62.09
73105;BME280;61296;50.526;30.792;2023-04-08T15:22:51;99968.78;;;12.35;66.21
73105;BME280;61296;50.526;30.792;2023-04-08T15:38:11;99954.25;;;12.08;64.57
73105;BME280;61296;50.526;30.792;2023-04-08T15:53:30;99932.97;;;12.05;64.86
73105;BME280;61296;50.526;30.792;2023-04-08T16:08:50;99940.97;;;12.14;65.42
73105;BME280;61296;50.526;30.792;2023-04-08T16:24:10;99931.22;;;11.90;64.98
73105;BME280;61296;50.526;30.792;2023-04-08T16:39:29;100025.66;;;12.47;65.77
73105;BME280;61296;50.526;30.792;2023-04-08T16:54:49;99978.63;;;12.03;65.09
73105;BME280;61296;50.526;30.792;2023-04-08T17:10:09;100009.72;;;12.00;64.48
73105;BME280;61296;50.526;30.792;2023-04-08T17:25:29;100085.28;;;12.25;66.03
73105;BME280;61296;50.526;30.792;2023-04-08T17:40:49;99992.13;;;11.32;69.71
73105;BME280;61296;50.526;30.792;2023-04-08T17:56:09;100052.31;;;11.56;69.01
73105;BME280;61296;50.526;30.792;2023-04-08T18:11:29;100008.66;;;11.32;69.28
73105;BME280;61296;50.526;30.792;2023-04-08T18:26:49;100114.97;;;11.60;72.91
73105;BME280;61296;50.526;30.792;2023-04-08T18:42:08;100057.28;;;11.02;73.11
73105;BME280;61296;50.526;30.792;2023-04-08T18:57:28;100135.44;;;11.39;72.61
73105;BME280;61296;50.526;30.792;2023-04-08T19:12:48;100036.41;;;10.78;74.62
73105;BME280;61296;50.526;30.792;2023-04-08T19:28:07;99999.88;;;10.58;75.89
73105;BME280;61296;50.526;30.792;2023-04-08T19:43:27;99959.56;;;10.07;77.33
73105;BME280;61296;50.526;30.792;2023-04-08T19:58:48;100099.78;;;11.04;77.90
73105;BME280;61296;50.526;30.792;2023-04-08T20:14:08;100039.31;;;10.65;79.08
73105;BME280;61296;50.526;30.792;2023-04-08T20:29:29;100101.25;;;10.98;81.38
73105;BME280;61296;50.526;30.792;2023-04-08T20:44:48;100036.63;;;10.50;83.08
73105;BME280;61296;50.526;30.792;2023-04-08T21:00:08;100038.81;;;10.05;85.53
73105;BME280;61296;50.526;30.792;2023-04-08T21:15:28;100025.63;;;10.11;84.14
73105;BME280;61296;50.526;30.792;2023-04-08T21:30:49;100001.59;;;9.73;85.95
73105;BME280;61296;50.526;30.792;2023-04-08T21:46:24;100031.03;;;9.72;87.52
73105;BME280;61296;50.526;30.792;2023-04-08T22:01:45;99938.31;;;8.99;87.77
73105;BME280;61296;50.526;30.792;2023-04-08T22:17:06;100037.53;;;9.48;87.00
73105;BME280;61296;50.526;30.792;2023-04-08T22:32:26;99936.28;;;8.80;85.82
73105;BME280;61296;50.526;30.792;2023-04-08T22:47:45;100106.94;;;9.65;84.17
73105;BME280;61296;50.526;30.792;2023-04-08T23:03:05;99990.31;;;8.95;81.62
73105;BME280;61296;50.526;30.792;2023-04-08T23:18:24;99955.34;;;8.61;81.01
73105;BME280;61296;50.526;30.792;2023-04-08T23:33:43;99945.09;;;8.30;82.26
73105;BME280;61296;50.526;30.792;2023-04-08T23:49:03;99932.88;;;7.99;82.24
